Time;durP1;ratioP1;P1;durP2;ratioP2;P2;SDS_P1;SDS_P2;PMS_P1;PMS_P2;Temp;Humidity;BMP_temperature;BMP_pressure;BME280_temperature;BME280_humidity;BME280_pressure;Samples;Min_cycle;Max_cycle;Signal;HPM_P1;HPM_P2
2023/09/10 00:02:22;;;;;;;15.38;9.27;;;;;;;24.96;100.00;101349.28;4987076;28;20042;-46
2023/09/10 00:04:49;;;;;;;15.48;9.23;;;;;;;24.95;100.00;101342.84;4992191;28;20461;-44
2023/09/10 00:07:16;;;;;;;15.25;8.65;;;;;;;24.94;100.00;101334.81;4999585;28;20047;-42
2023/09/10 00:09:42;;;;;;;15.98;9.45;;;;;;;24.94;100.00;101346.19;4988620;28;20053;-42
2023/09/10 00:12:09;;;;;;;15.60;10.00;;;;;;;24.94;100.00;101346.94;4986101;28;20050;-44
2023/09/10 00:14:35;;;;;;;16.67;9.38;;;;;;;24.93;100.00;101345.38;4987616;28;20100;-43
2023/09/10 00:17:02;;;;;;;18.13;9.02;;;;;;;24.94;100.00;101346.19;4988348;28;20057;-43
2023/09/10 00:19:28;;;;;;;17.38;9.93;;;;;;;24.93;100.00;101339.69;4995804;28;20061;-46
2023/09/10 00:21:55;;;;;;;15.55;9.45;;;;;;;24.94;100.00;101343.34;4989585;28;20058;-43
2023/09/10 00:24:23;;;;;;;16.05;9.18;;;;;;;24.93;100.00;101342.53;4989186;28;20074;-44
2023/09/10 00:26:49;;;;;;;15.23;9.15;;;;;;;24.94;100.00;101346.94;4987992;28;20125;-43
2023/09/10 00:29:16;;;;;;;16.25;9.35;;;;;;;24.93;100.00;101345.38;4988987;28;20150;-42
2023/09/10 00:31:42;;;;;;;18.00;9.13;;;;;;;24.94;100.00;101346.19;4990373;28;20500;-47
2023/09/10 00:34:09;;;;;;;15.25;9.38;;;;;;;24.97;100.00;101342.34;4990854;28;20142;-51
2023/09/10 00:36:35;;;;;;;16.58;9.50;;;;;;;24.98;100.00;101338.19;4987603;28;20116;-52
2023/09/10 00:39:03;;;;;;;15.48;9.48;;;;;;;24.98;100.00;101339.00;4988761;28;20085;-48
2023/09/10 00:41:29;;;;;;;15.27;8.63;;;;;;;24.98;100.00;101336.16;4988412;28;20046;-50
2023/09/10 00:43:56;;;;;;;16.20;9.55;;;;;;;24.99;100.00;101334.84;4989440;28;20058;-51
2023/09/10 00:46:23;;;;;;;14.13;8.38;;;;;;;25.00;100.00;101341.34;4980793;28;20049;-50
2023/09/10 00:48:49;;;;;;;15.90;9.25;;;;;;;25.00;100.00;101335.66;4988520;28;20752;-47
2023/09/10 00:51:16;;;;;;;15.75;9.40;;;;;;;25.01;100.00;101334.34;4986297;28;20043;-49
2023/09/10 00:53:43;;;;;;;16.63;9.52;;;;;;;25.00;100.00;101327.13;4986257;28;20137;-45
2023/09/10 00:56:11;;;;;;;16.25;9.73;;;;;;;25.01;100.00;101340.81;4989518;28;20073;-47
2023/09/10 00:58:38;;;;;;;15.48;8.93;;;;;;;25.02;100.00;101338.75;4989008;28;20468;-52
2023/09/10 01:01:05;;;;;;;15.98;9.75;;;;;;;25.01;100.00;101323.75;4989127;28;20054;-49
2023/09/10 01:03:34;;;;;;;16.65;9.93;;;;;;;25.02;100.00;101336.69;4986792;28;20050;-54
2023/09/10 01:06:02;;;;;;;15.60;9.55;;;;;;;25.01;100.00;101334.34;4989311;28;20050;-51
2023/09/10 01:08:28;;;;;;;15.48;8.90;;;;;;;25.02;100.00;101335.91;4986385;28;20446;-48
2023/09/10 01:11:01;;;;;;;16.77;8.48;;;;;;;25.02;100.00;101328.16;4989149;28;20077;-48
2023/09/10 01:13:45;;;;;;;14.95;9.15;;;;;;;25.03;100.00;101326.88;4987937;28;20579;-47
2023/09/10 01:16:29;;;;;;;14.63;9.02;;;;;;;25.03;100.00;101326.88;4988909;28;20050;-45
2023/09/10 01:19:03;;;;;;;16.55;9.13;;;;;;;25.03;100.00;101328.91;4992079;28;20120;-48
2023/09/10 01:21:49;;;;;;;15.07;8.90;;;;;;;25.04;100.00;101330.50;4989860;28;20065;-47
2023/09/10 01:24:40;;;;;;;15.93;9.25;;;;;;;25.05;100.00;101323.53;4987769;28;20484;-46
2023/09/10 01:27:07;;;;;;;16.05;9.40;;;;;;;25.04;100.00;101331.28;4994370;28;20050;-50
2023/09/10 01:29:33;;;;;;;15.32;9.23;;;;;;;25.04;100.00;101325.56;4988924;28;20138;-47
2023/09/10 01:32:04;;;;;;;13.38;8.55;;;;;;;25.04;100.00;101322.72;4995707;28;20109;-48
2023/09/10 01:34:37;;;;;;;14.88;8.85;;;;;;;25.05;100.00;101323.53;4997124;28;20133;-47
2023/09/10 01:37:21;;;;;;;14.38;9.43;;;;;;;25.04;100.00;101319.88;4995581;28;20145;-46
2023/09/10 01:39:53;;;;;;;14.90;8.95;;;;;;;25.03;100.00;101323.22;4988717;28;20645;-46
2023/09/10 01:42:22;;;;;;;15.07;8.93;;;;;;;25.05;100.00;101324.31;4988893;28;20111;-49
2023/09/10 01:44:49;;;;;;;16.17;9.32;;;;;;;25.06;100.00;101327.91;4989000;28;20051;-51
2023/09/10 01:47:16;;;;;;;14.40;9.30;;;;;;;25.06;100.00;101330.75;4985736;28;20137;-49
2023/09/10 01:49:43;;;;;;;13.95;8.43;;;;;;;25.06;100.00;101325.88;4988457;28;20137;-47
2023/09/10 01:52:10;;;;;;;14.20;8.65;;;;;;;25.06;100.00;101328.72;4986944;28;20121;-48
2023/09/10 01:54:36;;;;;;;14.55;8.38;;;;;;;25.07;100.00;101320.97;5001421;28;20081;-47
2023/09/10 01:57:03;;;;;;;14.77;9.05;;;;;;;25.07;100.00;101329.50;5001703;28;20534;-45
2023/09/10 01:59:30;;;;;;;18.77;9.98;;;;;;;25.06;100.00;101327.91;4991102;28;20054;-47
2023/09/10 02:01:56;;;;;;;16.42;9.57;;;;;;;25.08;100.00;101333.91;4989298;28;20150;-48
2023/09/10 02:04:23;;;;;;;14.50;9.05;;;;;;;25.08;100.00;101328.22;4992179;28;20057;-47
2023/09/10 02:06:49;;;;;;;15.07;8.77;;;;;;;25.09;100.00;101332.59;4992258;28;20058;-49
2023/09/10 02:09:16;;;;;;;15.02;8.02;;;;;;;25.10;100.00;101337.00;4989943;28;20042;-49
2023/09/10 02:11:42;;;;;;;15.50;9.35;;;;;;;25.09;100.00;101336.25;4997222;28;20516;-45
2023/09/10 02:14:09;;;;;;;14.95;9.63;;;;;;;25.08;100.00;101339.59;4990945;28;20055;-49
2023/09/10 02:16:35;;;;;;;15.00;8.95;;;;;;;25.08;100.00;101334.69;4992273;28;20050;-43
2023/09/10 02:19:02;;;;;;;13.77;8.35;;;;;;;25.07;100.00;101335.94;4991631;28;20054;-49
2023/09/10 02:21:29;;;;;;;16.27;8.73;;;;;;;25.06;100.00;101342.16;4992045;28;20046;-49
2023/09/10 02:23:55;;;;;;;14.27;9.15;;;;;;;25.06;100.00;101337.25;4992122;28;20047;-47
2023/09/10 02:26:22;;;;;;;14.32;8.57;;;;;;;25.05;100.00;101347.06;5000084;28;20052;-47
2023/09/10 02:28:48;;;;;;;16.95;9.52;;;;;;;25.06;100.00;101342.94;4994817;28;20046;-49
2023/09/10 02:31:15;;;;;;;15.10;8.43;;;;;;;25.05;100.00;101347.06;5000873;28;20050;-46
2023/09/10 02:33:41;;;;;;;14.48;9.30;;;;;;;25.06;100.00;101350.69;4991672;28;20050;-47
2023/09/10 02:36:08;;;;;;;15.85;9.77;;;;;;;25.05;100.00;101340.59;4991422;28;20077;-49
2023/09/10 02:38:35;;;;;;;17.08;9.60;;;;;;;25.05;100.00;101343.44;4991360;28;20100;-50
2023/09/10 02:41:01;;;;;;;15.15;9.23;;;;;;;25.06;100.00;101347.84;4991773;28;20082;-47
2023/09/10 02:43:28;;;;;;;15.85;9.65;;;;;;;25.04;100.00;101347.56;4988470;28;20054;-52
2023/09/10 02:45:54;;;;;;;15.75;9.50;;;;;;;25.04;100.00;101351.19;4989868;28;20058;-51
2023/09/10 02:48:21;;;;;;;15.00;9.93;;;;;;;25.04;100.00;101353.25;4990335;28;20053;-49
2023/09/10 02:50:48;;;;;;;14.52;8.73;;;;;;;25.03;100.00;101354.53;4991529;28;20057;-49
2023/09/10 02:53:14;;;;;;;14.50;8.95;;;;;;;25.02;100.00;101352.97;4992817;28;20211;-46
2023/09/10 02:55:41;;;;;;;15.02;8.85;;;;;;;25.01;100.00;101355.03;4990763;28;20049;-50
2023/09/10 02:58:07;;;;;;;14.73;8.00;;;;;;;25.02;100.00;101355.81;4990928;28;20512;-48
2023/09/10 03:00:34;;;;;;;15.63;9.00;;;;;;;24.99;100.00;101351.91;4991358;28;20105;-48
2023/09/10 03:03:00;;;;;;;14.40;8.90;;;;;;;25.00;100.00;101362.00;4987762;28;20054;-45
2023/09/10 03:05:32;;;;;;;16.52;8.68;;;;;;;24.99;100.00;101359.66;4991950;28;20057;-49
2023/09/10 03:07:59;;;;;;;15.63;9.48;;;;;;;24.99;100.00;101359.66;4988087;28;20042;-52
2023/09/10 03:10:25;;;;;;;15.15;9.32;;;;;;;24.99;100.00;101353.97;4993054;28;20092;-50
2023/09/10 03:12:52;;;;;;;15.38;9.23;;;;;;;24.98;100.00;101358.91;4989354;28;20074;-49
2023/09/10 03:15:18;;;;;;;15.25;9.13;;;;;;;24.99;100.00;101353.97;4990864;28;20073;-46
2023/09/10 03:17:45;;;;;;;14.93;9.35;;;;;;;24.97;100.00;101350.88;4990096;28;20101;-49
2023/09/10 03:20:12;;;;;;;15.50;9.25;;;;;;;24.97;100.00;101354.47;4989998;28;20133;-50
2023/09/10 03:22:38;;;;;;;15.10;8.80;;;;;;;24.97;100.00;101351.63;4992152;28;20050;-46
2023/09/10 03:25:05;;;;;;;14.70;8.88;;;;;;;24.97;100.00;101356.56;4989556;28;20058;-48
2023/09/10 03:27:32;;;;;;;15.48;8.68;;;;;;;24.97;100.00;101356.56;4988695;28;20133;-51
2023/09/10 03:30:00;;;;;;;15.63;9.05;;;;;;;24.96;100.00;101349.28;4987085;28;20125;-51
2023/09/10 03:32:26;;;;;;;16.48;10.23;;;;;;;24.95;100.00;101348.53;4983334;28;20050;-52
2023/09/10 03:34:53;;;;;;;15.80;9.18;;;;;;;24.95;100.00;101342.84;4990589;28;20108;-47
2023/09/10 03:37:19;;;;;;;15.02;9.32;;;;;;;24.95;100.00;101344.88;4987548;28;20077;-49
2023/09/10 03:39:46;;;;;;;15.02;9.23;;;;;;;24.93;100.00;101339.69;4990654;28;20053;-52
2023/09/10 03:42:12;;;;;;;17.45;9.52;;;;;;;24.94;100.00;101346.19;4990656;28;20527;-48
2023/09/10 03:44:39;;;;;;;15.43;9.50;;;;;;;24.94;100.00;101349.03;4988622;28;20061;-50
2023/09/10 03:47:06;;;;;;;15.60;9.07;;;;;;;24.92;100.00;101346.69;4992074;28;20085;-46
2023/09/10 03:49:32;;;;;;;16.08;9.25;;;;;;;24.93;100.00;101350.28;4990141;28;20061;-49
2023/09/10 03:51:59;;;;;;;15.40;8.73;;;;;;;24.93;100.00;101350.28;4990221;28;20157;-52
2023/09/10 03:54:25;;;;;;;15.45;9.50;;;;;;;24.93;100.00;101350.28;4992987;28;20093;-49
2023/09/10 03:56:52;;;;;;;15.10;9.05;;;;;;;24.92;100.00;101355.22;4988541;28;20146;-48
2023/09/10 03:59:18;;;;;;;13.82;8.70;;;;;;;24.91;100.00;101356.50;4989998;28;20058;-46
2023/09/10 04:01:45;;;;;;;14.77;9.02;;;;;;;24.91;100.00;101359.34;4989355;28;20531;-50
2023/09/10 04:04:11;;;;;;;15.05;8.70;;;;;;;24.91;100.00;101362.19;4998251;28;20043;-47
2023/09/10 04:06:38;;;;;;;14.60;9.05;;;;;;;24.90;100.00;101360.63;4989382;28;20453;-50
2023/09/10 04:09:05;;;;;;;18.13;10.30;;;;;;;24.90;100.00;101352.09;4989932;28;20062;-46
2023/09/10 04:11:31;;;;;;;16.75;9.80;;;;;;;24.90;100.00;101349.22;4987942;28;20046;-49
2023/09/10 04:13:58;;;;;;;16.77;10.13;;;;;;;24.89;100.00;101361.91;4990775;28;20058;-48
2023/09/10 04:16:26;;;;;;;14.43;9.48;;;;;;;24.89;100.00;101358.28;4988641;28;20085;-50
2023/09/10 04:18:53;;;;;;;15.18;8.55;;;;;;;24.87;100.00;101358.78;4989600;28;20132;-48
2023/09/10 04:21:19;;;;;;;15.93;9.18;;;;;;;24.87;100.00;101352.31;4989753;28;20080;-49
2023/09/10 04:23:46;;;;;;;16.42;9.60;;;;;;;24.88;100.00;101357.50;4989806;28;20065;-48
2023/09/10 04:26:13;;;;;;;15.27;9.27;;;;;;;24.89;100.00;101355.44;4986696;28;20060;-47
2023/09/10 04:28:40;;;;;;;15.55;9.20;;;;;;;24.87;100.00;101353.09;4990456;28;20109;-47
2023/09/10 04:31:12;;;;;;;14.88;9.25;;;;;;;24.87;100.00;101353.09;4991574;28;20061;-48
2023/09/10 04:33:38;;;;;;;14.50;9.13;;;;;;;24.87;100.00;101358.00;4989392;28;20042;-47
2023/09/10 04:36:05;;;;;;;15.65;9.75;;;;;;;24.86;100.00;101351.53;4988500;28;20082;-47
2023/09/10 04:38:31;;;;;;;16.20;9.52;;;;;;;24.87;100.00;101358.78;4989336;28;20144;-49
2023/09/10 04:40:58;;;;;;;16.77;9.90;;;;;;;24.87;100.00;101352.31;4988145;28;20074;-53
2023/09/10 04:43:24;;;;;;;15.00;9.02;;;;;;;24.85;100.00;101352.81;4989372;28;20121;-49
2023/09/10 04:45:51;;;;;;;15.18;9.30;;;;;;;24.85;100.00;101361.34;4985219;28;20193;-47
2023/09/10 04:48:17;;;;;;;14.32;9.32;;;;;;;24.85;100.00;101363.41;4986319;28;20137;-45
2023/09/10 04:50:44;;;;;;;14.55;8.93;;;;;;;24.86;100.00;101362.91;4989433;28;20137;-49
2023/09/10 04:53:13;;;;;;;14.80;9.27;;;;;;;24.85;100.00;101364.19;4988774;28;20128;-49
2023/09/10 04:55:40;;;;;;;17.42;9.57;;;;;;;24.85;100.00;101369.88;4983903;28;20100;-53
2023/09/10 04:58:07;;;;;;;15.27;8.75;;;;;;;24.83;100.00;101358.19;4988664;28;20057;-47
2023/09/10 05:00:33;;;;;;;15.30;8.63;;;;;;;24.85;100.00;101358.50;4989203;28;20165;-48
2023/09/10 05:03:00;;;;;;;14.32;8.82;;;;;;;24.84;100.00;101364.66;4989080;28;20050;-47
2023/09/10 05:05:27;;;;;;;15.25;9.00;;;;;;;24.83;100.00;101366.72;4990801;28;20050;-47
2023/09/10 05:07:53;;;;;;;14.90;9.10;;;;;;;24.84;100.00;101367.50;4988055;28;20125;-44
2023/09/10 05:10:20;;;;;;;19.48;9.93;;;;;;;24.84;100.00;101365.44;4992880;28;20128;-48
2023/09/10 05:12:51;;;;;;;14.05;8.95;;;;;;;24.83;100.00;101361.03;4988873;28;20078;-49
2023/09/10 05:15:17;;;;;;;15.93;9.80;;;;;;;24.82;100.00;101364.38;4989127;28;20460;-48
2023/09/10 05:17:44;;;;;;;15.35;9.02;;;;;;;24.82;100.00;101362.31;4988828;28;20483;-47
2023/09/10 05:20:11;;;;;;;16.30;10.20;;;;;;;24.82;100.00;101365.16;4987627;28;20664;-47
2023/09/10 05:22:37;;;;;;;15.43;9.27;;;;;;;24.82;100.00;101365.16;4991135;28;20046;-47
2023/09/10 05:25:04;;;;;;;15.23;9.40;;;;;;;24.82;100.00;101365.16;4988588;28;20081;-49
2023/09/10 05:27:32;;;;;;;15.10;9.43;;;;;;;24.82;100.00;101362.31;5000955;28;20077;-51
2023/09/10 05:29:58;;;;;;;15.98;8.93;;;;;;;24.81;100.00;101363.63;4992484;28;20523;-46
2023/09/10 05:32:27;;;;;;;15.70;9.70;;;;;;;24.82;100.00;101367.22;4992788;28;20161;-46
2023/09/10 05:34:54;;;;;;;16.50;9.68;;;;;;;24.81;100.00;101371.34;4992923;28;20143;-50
2023/09/10 05:37:22;;;;;;;15.73;9.18;;;;;;;24.81;100.00;101374.97;4991146;28;20125;-49
2023/09/10 05:39:49;;;;;;;20.23;9.90;;;;;;;24.80;100.00;101376.25;4996771;28;20050;-49
2023/09/10 05:42:16;;;;;;;15.15;8.90;;;;;;;24.80;100.00;101381.16;4992459;28;20104;-47
2023/09/10 05:44:42;;;;;;;14.38;9.32;;;;;;;24.79;100.00;101380.38;4992095;28;20066;-50
2023/09/10 05:47:09;;;;;;;15.60;8.98;;;;;;;24.81;100.00;101377.03;4992338;28;20163;-50
2023/09/10 05:49:37;;;;;;;16.25;9.65;;;;;;;24.78;100.00;101378.81;4992058;28;20054;-48
2023/09/10 05:52:04;;;;;;;14.60;9.07;;;;;;;24.79;100.00;101380.38;4992582;28;20068;-51
2023/09/10 05:54:30;;;;;;;15.80;9.23;;;;;;;24.78;100.00;101381.66;4993288;28;20143;-46
2023/09/10 05:56:57;;;;;;;15.52;9.32;;;;;;;24.78;100.00;101381.66;4997552;28;20085;-46
2023/09/10 05:59:23;;;;;;;14.00;8.68;;;;;;;24.79;100.00;101382.44;4988888;28;20050;-46
2023/09/10 06:01:52;;;;;;;15.23;9.27;;;;;;;24.77;100.00;101377.25;4992452;28;20050;-46
2023/09/10 06:04:19;;;;;;;15.40;8.13;;;;;;;24.77;100.00;101374.41;4992668;28;20046;-52
2023/09/10 06:06:46;;;;;;;16.60;9.98;;;;;;;24.78;100.00;101375.97;4991029;28;20053;-39
2023/09/10 06:09:12;;;;;;;19.77;12.15;;;;;;;24.77;100.00;101380.09;4988948;28;20146;-43
2023/09/10 06:11:39;;;;;;;19.95;11.95;;;;;;;24.78;100.00;101380.88;4991023;28;20464;-46
2023/09/10 06:14:05;;;;;;;18.85;11.40;;;;;;;24.75;100.00;101384.72;4987951;28;20042;-42
2023/09/10 06:16:33;;;;;;;17.33;11.02;;;;;;;24.74;100.00;101389.63;4991861;28;20050;-44
2023/09/10 06:18:59;;;;;;;17.45;11.52;;;;;;;24.75;100.00;101391.19;4991454;28;20565;-42
2023/09/10 06:21:26;;;;;;;19.52;12.00;;;;;;;24.75;100.00;101394.03;4987401;28;20077;-45
2023/09/10 06:23:52;;;;;;;18.48;11.10;;;;;;;24.75;100.00;101387.56;4989528;28;20074;-46
2023/09/10 06:26:19;;;;;;;17.38;11.18;;;;;;;24.75;100.00;101391.19;4990170;28;20146;-46
2023/09/10 06:28:45;;;;;;;17.33;11.90;;;;;;;24.75;100.00;101384.72;4991757;28;20054;-41
2023/09/10 06:31:12;;;;;;;18.75;12.68;;;;;;;24.73;100.00;101388.06;4990026;28;20046;-43
2023/09/10 06:33:39;;;;;;;20.40;12.15;;;;;;;24.72;100.00;101392.19;4988467;28;20050;-45
2023/09/10 06:36:05;;;;;;;16.73;11.40;;;;;;;24.72;100.00;101385.72;4991575;28;20058;-42
2023/09/10 06:38:32;;;;;;;19.23;13.18;;;;;;;24.70;100.00;101386.22;4985792;28;20141;-42
2023/09/10 06:40:58;;;;;;;18.70;11.90;;;;;;;24.72;100.00;101394.25;4990495;28;20105;-44
2023/09/10 06:43:25;;;;;;;19.25;11.65;;;;;;;24.71;100.00;101396.31;4990299;28;20101;-46
2023/09/10 06:45:51;;;;;;;23.40;12.65;;;;;;;24.73;100.00;101399.44;4989833;28;20058;-42
2023/09/10 06:48:18;;;;;;;18.30;12.05;;;;;;;24.72;100.00;101394.25;4990362;28;20050;-44
2023/09/10 06:50:45;;;;;;;18.35;12.30;;;;;;;24.71;100.00;101402.00;4990336;28;20046;-46
2023/09/10 06:53:12;;;;;;;20.58;13.02;;;;;;;24.72;100.00;101402.78;4991298;28;20101;-43
2023/09/10 06:55:39;;;;;;;20.75;13.95;;;;;;;24.71;100.00;101404.84;4988757;28;20573;-41
2023/09/10 06:58:05;;;;;;;20.02;12.95;;;;;;;24.69;100.00;101401.72;4976889;28;20133;-45
2023/09/10 07:00:33;;;;;;;23.00;14.93;;;;;;;24.67;100.00;101412.81;4983651;28;20085;-42
2023/09/10 07:03:02;;;;;;;25.23;16.45;;;;;;;24.67;100.00;101401.44;4988242;28;20222;-44
2023/09/10 07:05:28;;;;;;;24.00;16.02;;;;;;;24.67;100.00;101400.66;4989563;28;20050;-42
2023/09/10 07:07:55;;;;;;;23.63;17.02;;;;;;;24.66;100.00;101399.88;4983202;28;20063;-42
2023/09/10 07:10:22;;;;;;;25.70;17.30;;;;;;;24.65;100.00;101409.69;4993004;28;20132;-45
2023/09/10 07:12:48;;;;;;;22.92;16.08;;;;;;;24.65;100.00;101406.84;4995907;28;20103;-43
2023/09/10 07:15:15;;;;;;;24.95;16.02;;;;;;;24.66;100.00;101405.56;4984222;28;20094;-40
2023/09/10 07:17:41;;;;;;;23.60;15.90;;;;;;;24.66;100.00;101404.75;4989472;28;20054;-44
2023/09/10 07:20:08;;;;;;;22.48;15.88;;;;;;;24.65;100.00;101415.38;4991081;28;20090;-41
2023/09/10 07:22:35;;;;;;;25.42;17.00;;;;;;;24.66;100.00;101410.44;4986123;28;20050;-44
2023/09/10 07:25:02;;;;;;;24.42;16.83;;;;;;;24.65;100.00;101408.91;4997976;28;20073;-42
2023/09/10 07:27:28;;;;;;;24.98;17.52;;;;;;;24.63;100.00;101414.31;4990362;28;20054;-44
2023/09/10 07:29:55;;;;;;;24.27;16.52;;;;;;;24.62;100.00;101410.69;4988272;28;20265;-42
2023/09/10 07:32:21;;;;;;;27.08;17.60;;;;;;;24.64;100.00;101425.19;4993181;28;20049;-44
2023/09/10 07:34:48;;;;;;;23.77;16.17;;;;;;;24.63;100.00;101420.75;4991540;28;20077;-43
2023/09/10 07:37:14;;;;;;;26.05;17.83;;;;;;;24.62;100.00;101422.06;4989566;28;20054;-46
2023/09/10 07:39:41;;;;;;;26.10;18.55;;;;;;;24.61;100.00;101417.66;4988360;28;20074;-42
2023/09/10 07:42:07;;;;;;;24.50;17.95;;;;;;;24.61;100.00;101420.50;4989746;28;20161;-42
2023/09/10 07:44:34;;;;;;;25.63;18.23;;;;;;;24.60;100.00;101418.91;4988936;28;20046;-47
2023/09/10 07:47:00;;;;;;;26.63;18.27;;;;;;;24.61;100.00;101414.81;4988472;28;20058;-46
2023/09/10 07:49:28;;;;;;;26.70;17.25;;;;;;;24.62;100.00;101416.38;4987585;28;20398;-48
2023/09/10 07:51:54;;;;;;;27.52;17.00;;;;;;;24.62;100.00;101421.25;4988726;28;20092;-48
2023/09/10 07:54:21;;;;;;;28.83;18.05;;;;;;;24.63;100.00;101422.84;4989213;28;20525;-50
2023/09/10 07:56:47;;;;;;;26.95;17.88;;;;;;;24.64;100.00;101424.41;4986188;28;20050;-48
2023/09/10 07:59:14;;;;;;;25.80;16.92;;;;;;;24.63;100.00;101428.53;4987214;28;20096;-52
2023/09/10 08:01:42;;;;;;;24.42;17.55;;;;;;;24.64;100.00;101424.41;4990025;28;20078;-51
2023/09/10 08:04:08;;;;;;;25.80;17.38;;;;;;;24.64;100.00;101424.41;4989912;28;20105;-48
2023/09/10 08:06:35;;;;;;;25.65;17.60;;;;;;;24.64;100.00;101427.25;4989326;28;20086;-52
2023/09/10 08:09:02;;;;;;;23.83;16.65;;;;;;;24.64;100.00;101428.03;4988461;28;20058;-51
2023/09/10 08:11:32;;;;;;;25.10;17.65;;;;;;;24.64;100.00;101424.41;4987892;28;20046;-49
2023/09/10 08:13:59;;;;;;;25.13;16.40;;;;;;;24.65;100.00;101432.44;4986368;28;20097;-45
2023/09/10 08:16:25;;;;;;;23.40;16.25;;;;;;;24.64;100.00;101428.03;4989099;28;20070;-52
2023/09/10 08:18:52;;;;;;;26.55;16.67;;;;;;;24.64;100.00;101428.03;4979249;28;20061;-50
2023/09/10 08:21:20;;;;;;;26.00;15.23;;;;;;;24.64;100.00;101430.88;4986031;28;20124;-50
2023/09/10 08:23:47;;;;;;;23.73;15.27;;;;;;;24.65;100.00;101431.63;4983641;28;20046;-50
2023/09/10 08:26:14;;;;;;;23.48;15.77;;;;;;;24.64;100.00;101428.03;4987954;28;20050;-51
2023/09/10 08:28:40;;;;;;;23.63;15.10;;;;;;;24.63;100.00;101420.75;4987848;28;20186;-52
2023/09/10 08:31:07;;;;;;;26.20;16.58;;;;;;;24.65;100.00;101423.91;4985129;28;20046;-47
2023/09/10 08:33:33;;;;;;;22.10;15.35;;;;;;;24.65;100.00;101426.75;4987499;28;20064;-45
2023/09/10 08:36:00;;;;;;;21.65;15.05;;;;;;;24.65;100.00;101426.75;4989452;28;20085;-52
2023/09/10 08:38:26;;;;;;;23.75;15.93;;;;;;;24.65;100.00;101421.06;4979135;28;20082;-49
2023/09/10 08:40:59;;;;;;;24.95;15.52;;;;;;;24.65;100.00;101421.06;4988822;28;20057;-49
2023/09/10 08:43:41;;;;;;;23.73;15.13;;;;;;;24.66;100.00;101430.34;4988607;28;20058;-48
2023/09/10 08:46:09;;;;;;;23.23;15.35;;;;;;;24.67;100.00;101429.09;4987858;28;20053;-50
2023/09/10 08:48:43;;;;;;;22.92;14.35;;;;;;;24.67;100.00;101431.94;4986810;28;20058;-47
2023/09/10 08:51:14;;;;;;;21.83;13.90;;;;;;;24.66;100.00;101422.63;4987728;28;20085;-47
2023/09/10 08:53:41;;;;;;;19.85;13.45;;;;;;;24.66;100.00;101419.78;4989198;28;20127;-52
2023/09/10 08:56:10;;;;;;;18.48;12.77;;;;;;;24.67;100.00;101420.56;4987697;28;20061;-51
2023/09/10 08:58:38;;;;;;;21.63;13.95;;;;;;;24.66;100.00;101419.78;4986461;28;20577;-52
2023/09/10 09:01:10;;;;;;;20.65;12.65;;;;;;;24.66;100.00;101414.09;4985378;28;20058;-50
2023/09/10 09:03:37;;;;;;;19.45;13.20;;;;;;;24.66;100.00;101418.97;4983663;28;20512;-51
2023/09/10 09:06:05;;;;;;;21.75;14.00;;;;;;;24.67;100.00;101412.81;4987840;28;20132;-50
2023/09/10 09:08:34;;;;;;;22.75;13.93;;;;;;;24.68;100.00;101416.44;4987043;28;20516;-50
2023/09/10 09:11:06;;;;;;;21.73;13.25;;;;;;;24.66;100.00;101411.25;4986281;28;20054;-47
2023/09/10 09:13:36;;;;;;;21.67;13.95;;;;;;;24.67;100.00;101409.97;4981991;28;20521;-51
2023/09/10 09:16:06;;;;;;;20.60;13.30;;;;;;;24.68;100.00;101403.00;4986465;28;20107;-48
2023/09/10 09:18:35;;;;;;;19.48;13.15;;;;;;;24.67;100.00;101409.19;4988208;28;20176;-49
2023/09/10 09:21:11;;;;;;;21.17;13.30;;;;;;;24.67;100.00;101404.28;4987980;28;20097;-47
2023/09/10 09:23:46;;;;;;;20.05;12.63;;;;;;;24.68;100.00;101397.31;4984053;28;20138;-49
2023/09/10 09:26:14;;;;;;;19.35;12.48;;;;;;;24.68;100.00;101400.16;4978639;28;20208;-48
2023/09/10 09:28:41;;;;;;;19.33;12.57;;;;;;;24.69;100.00;101398.88;4983201;28;20046;-48
2023/09/10 09:31:09;;;;;;;21.33;13.23;;;;;;;24.70;100.00;101403.28;5001432;28;20084;-49
2023/09/10 09:33:37;;;;;;;21.63;12.85;;;;;;;24.69;100.00;101401.72;4988594;28;20057;-50
2023/09/10 09:36:11;;;;;;;17.88;11.20;;;;;;;24.70;100.00;101396.81;4988417;28;20114;-49
2023/09/10 09:38:42;;;;;;;19.02;12.40;;;;;;;24.68;100.00;101394.47;4992394;28;20050;-47
2023/09/10 09:41:09;;;;;;;19.30;12.98;;;;;;;24.68;100.00;101396.53;4987294;28;20054;-50
2023/09/10 09:43:36;;;;;;;18.90;12.73;;;;;;;24.70;100.00;101389.06;4994305;28;20073;-51
2023/09/10 09:46:03;;;;;;;18.45;12.30;;;;;;;24.68;100.00;101385.94;4987796;28;20047;-48
2023/09/10 09:48:30;;;;;;;18.15;11.60;;;;;;;24.69;100.00;101393.19;4986618;28;20054;-51
2023/09/10 09:50:57;;;;;;;23.10;12.65;;;;;;;24.69;100.00;101393.19;4993420;28;20050;-48
2023/09/10 09:53:28;;;;;;;18.75;11.85;;;;;;;24.70;100.00;101391.91;4994912;28;20642;-53
2023/09/10 09:55:56;;;;;;;19.67;11.65;;;;;;;24.71;100.00;101390.63;4992437;28;20054;-52
2023/09/10 09:58:23;;;;;;;17.33;11.90;;;;;;;24.71;100.00;101390.63;4997016;28;20145;-47
2023/09/10 10:00:50;;;;;;;16.92;11.32;;;;;;;24.72;100.00;101382.88;4989361;28;20805;-51
2023/09/10 10:03:18;;;;;;;17.45;11.40;;;;;;;24.71;100.00;101382.13;4987473;28;20077;-50
2023/09/10 10:05:52;;;;;;;18.75;11.57;;;;;;;24.71;100.00;101376.41;4988274;28;20049;-47
2023/09/10 10:08:23;;;;;;;17.70;11.38;;;;;;;24.70;100.00;101383.38;4988430;28;20054;-53
2023/09/10 10:10:50;;;;;;;17.60;11.90;;;;;;;24.71;100.00;101379.28;4991310;28;20053;-51
2023/09/10 10:13:19;;;;;;;16.15;10.40;;;;;;;24.70;100.00;101383.38;4988458;28;20047;-49
2023/09/10 10:15:47;;;;;;;18.48;11.95;;;;;;;24.71;100.00;101378.47;4988054;28;20082;-46
2023/09/10 10:18:18;;;;;;;16.98;10.77;;;;;;;24.72;100.00;101375.13;4991536;28;20054;-50
2023/09/10 10:20:47;;;;;;;18.63;11.25;;;;;;;24.72;100.00;101375.13;4991502;28;20136;-50
2023/09/10 10:23:15;;;;;;;18.77;10.93;;;;;;;24.72;100.00;101374.34;4994208;28;20050;-48
2023/09/10 10:25:52;;;;;;;17.48;11.05;;;;;;;24.71;100.00;101372.78;4987204;28;20104;-50
2023/09/10 10:28:20;;;;;;;18.92;11.63;;;;;;;24.70;100.00;101369.16;4991142;28;20046;-48
2023/09/10 10:30:52;;;;;;;17.00;11.13;;;;;;;24.71;100.00;101373.59;4993723;28;20657;-49
2023/09/10 10:33:23;;;;;;;15.98;10.55;;;;;;;24.71;100.00;101367.91;4991873;28;20092;-53
2023/09/10 10:36:10;;;;;;;18.50;10.70;;;;;;;24.72;100.00;101366.59;4990375;28;20420;-50
2023/09/10 10:38:44;;;;;;;21.20;11.38;;;;;;;24.73;100.00;101356.03;4985028;28;20096;-52
2023/09/10 10:41:19;;;;;;;16.67;10.40;;;;;;;24.72;100.00;101354.44;4998441;28;20475;-51
2023/09/10 10:43:53;;;;;;;17.17;10.40;;;;;;;24.70;100.00;101349.25;4990671;28;20290;-48
2023/09/10 10:46:25;;;;;;;17.55;10.88;;;;;;;24.70;100.00;101349.25;4991136;28;20050;-51
2023/09/10 10:48:52;;;;;;;18.70;11.60;;;;;;;24.70;100.00;101349.25;4991393;28;20054;-47
2023/09/10 10:51:19;;;;;;;16.50;10.50;;;;;;;24.71;100.00;101350.03;4988430;28;20599;-53
2023/09/10 10:53:46;;;;;;;18.80;11.15;;;;;;;24.71;100.00;101344.34;4982771;28;20050;-49
2023/09/10 10:56:15;;;;;;;17.15;10.00;;;;;;;24.69;100.00;101344.06;4990144;28;20501;-49
2023/09/10 10:58:42;;;;;;;16.88;10.50;;;;;;;24.69;100.00;101342.00;4989333;28;20137;-52
2023/09/10 11:01:12;;;;;;;17.92;11.13;;;;;;;24.70;100.00;101337.88;4985757;28;20054;-51
2023/09/10 11:03:39;;;;;;;19.45;10.90;;;;;;;24.70;100.00;101334.28;4984700;28;20054;-49
2023/09/10 11:06:07;;;;;;;19.15;10.60;;;;;;;24.69;100.00;101339.16;4990025;28;20057;-49
2023/09/10 11:08:38;;;;;;;17.48;10.45;;;;;;;24.70;100.00;101337.88;4985771;28;20100;-49